createdAt,value
2019-02-20T00:01:29.875Z,6.75
2019-02-20T00:03:56.725Z,6.61
2019-02-20T00:06:23.271Z,6.63
2019-02-20T00:08:49.895Z,6.66
2019-02-20T00:11:16.710Z,6.68
2019-02-20T00:13:43.374Z,6.66
2019-02-20T00:16:09.937Z,6.80
2019-02-20T00:18:36.523Z,6.74
2019-02-20T00:21:03.388Z,6.75
2019-02-20T00:23:30.824Z,6.73
2019-02-20T00:25:57.449Z,6.71
2019-02-20T00:28:23.935Z,6.73
2019-02-20T00:30:50.498Z,6.79
2019-02-20T00:33:16.817Z,6.68
2019-02-20T00:35:43.424Z,6.84
2019-02-20T00:38:09.911Z,6.83
2019-02-20T00:40:36.468Z,6.87
2019-02-20T00:43:03.112Z,6.97
2019-02-20T00:45:34.213Z,7.02
2019-02-20T00:48:11.529Z,7.00
2019-02-20T00:50:42.516Z,6.98
2019-02-20T00:53:17.302Z,6.87
2019-02-20T00:55:43.686Z,6.86
2019-02-20T00:58:10.144Z,6.98
2019-02-20T01:00:37.098Z,6.93
2019-02-20T01:03:03.522Z,7.04
2019-02-20T01:05:30.119Z,7.01
2019-02-20T01:07:56.898Z,6.93
2019-02-20T01:10:23.492Z,7.04
2019-02-20T01:12:49.772Z,6.98
2019-02-20T01:15:16.206Z,6.94
2019-02-20T01:17:42.676Z,7.12
2019-02-20T01:20:09.391Z,7.08
2019-02-20T01:22:35.734Z,6.98
2019-02-20T01:25:02.985Z,6.99
2019-02-20T01:27:29.527Z,7.07
2019-02-20T01:29:55.959Z,7.03
2019-02-20T01:32:24.735Z,7.01
2019-02-20T01:34:51.081Z,7.02
2019-02-20T01:37:17.611Z,6.98
2019-02-20T01:39:44.192Z,6.97
2019-02-20T01:42:11.484Z,7.13
2019-02-20T01:44:39.216Z,7.08
2019-02-20T01:47:19.831Z,6.95
2019-02-20T01:50:11.525Z,6.91
2019-02-20T01:52:26.325Z,6.89
2019-02-20T01:54:54.537Z,6.93
2019-02-20T01:57:21.174Z,6.99
2019-02-20T01:59:47.718Z,7.03
2019-02-20T02:02:14.407Z,7.01
2019-02-20T02:04:40.997Z,7.04
2019-02-20T02:07:07.737Z,7.00
2019-02-20T02:09:34.256Z,7.07
2019-02-20T02:12:00.926Z,6.96
2019-02-20T02:14:27.390Z,7.02
2019-02-20T02:16:54.135Z,7.02
2019-02-20T02:19:20.941Z,6.96
2019-02-20T02:21:47.446Z,6.94
2019-02-20T02:24:13.850Z,7.02
2019-02-20T02:26:40.621Z,7.03
2019-02-20T02:29:07.155Z,7.08
2019-02-20T02:31:33.464Z,7.04
2019-02-20T02:34:01.184Z,7.01
2019-02-20T02:36:27.648Z,7.01
2019-02-20T02:38:54.116Z,7.05
2019-02-20T02:41:26.952Z,7.02
2019-02-20T02:43:55.077Z,7.15
2019-02-20T02:46:21.514Z,7.09
2019-02-20T02:48:47.933Z,7.01
2019-02-20T02:51:14.415Z,6.95
2019-02-20T02:53:40.789Z,7.03
2019-02-20T02:56:07.288Z,6.95
2019-02-20T02:58:33.709Z,7.05
2019-02-20T03:01:00.326Z,7.10
2019-02-20T03:03:26.959Z,7.07
2019-02-20T03:05:53.501Z,7.10
2019-02-20T03:08:20.119Z,7.03
2019-02-20T03:10:46.677Z,6.91
2019-02-20T03:13:13.213Z,6.96
2019-02-20T03:15:39.627Z,6.88
2019-02-20T03:18:06.104Z,6.80
2019-02-20T03:20:32.419Z,6.81
2019-02-20T03:22:58.946Z,6.80
2019-02-20T03:25:25.270Z,6.84
2019-02-20T03:27:51.711Z,6.87
2019-02-20T03:30:18.247Z,6.84
2019-02-20T03:32:44.680Z,6.81
2019-02-20T03:35:11.338Z,6.79
2019-02-20T03:37:38.054Z,6.76
2019-02-20T03:40:05.722Z,6.83
2019-02-20T03:42:32.157Z,6.87
2019-02-20T03:44:58.489Z,6.84
2019-02-20T03:47:25.139Z,6.89
2019-02-20T03:49:51.860Z,6.83
2019-02-20T03:52:18.588Z,6.84
2019-02-20T03:54:45.224Z,6.86
2019-02-20T03:57:11.868Z,6.84
2019-02-20T03:59:38.892Z,6.80
2019-02-20T04:02:06.066Z,6.76
2019-02-20T04:04:32.589Z,6.82
2019-02-20T04:06:59.124Z,6.75
2019-02-20T04:09:25.807Z,6.87
2019-02-20T04:11:52.440Z,6.76
2019-02-20T04:14:19.462Z,6.90
2019-02-20T04:16:45.874Z,6.88
2019-02-20T04:19:12.290Z,6.89
2019-02-20T04:21:38.768Z,6.97
2019-02-20T04:24:05.597Z,7.01
2019-02-20T04:26:32.247Z,6.95
2019-02-20T04:28:58.674Z,7.01
2019-02-20T04:31:25.315Z,7.01
2019-02-20T04:33:52.615Z,7.04
2019-02-20T04:36:19.509Z,6.87
2019-02-20T04:38:46.279Z,6.88
2019-02-20T04:41:12.714Z,6.95
2019-02-20T04:43:40.236Z,6.99
2019-02-20T04:46:06.884Z,6.90
2019-02-20T04:48:34.268Z,7.00
2019-02-20T04:51:00.766Z,7.02
2019-02-20T04:53:27.403Z,7.10
2019-02-20T04:55:54.631Z,6.97
2019-02-20T04:58:21.985Z,7.07
2019-02-20T05:00:48.653Z,7.13
2019-02-20T05:03:15.275Z,7.12
2019-02-20T05:05:42.136Z,7.15
2019-02-20T05:08:08.666Z,7.19
2019-02-20T05:10:35.051Z,7.11
2019-02-20T05:13:01.602Z,7.11
2019-02-20T05:15:28.391Z,7.15
2019-02-20T05:17:54.916Z,7.09
2019-02-20T05:23:45.330Z,7.10
2019-02-20T05:26:12.055Z,7.05
2019-02-20T05:28:38.938Z,7.04
2019-02-20T05:31:05.481Z,7.11
2019-02-20T05:33:31.956Z,7.16
2019-02-20T05:35:58.517Z,7.11
2019-02-20T05:38:24.862Z,7.14
2019-02-20T05:40:52.079Z,7.12
2019-02-20T05:43:18.651Z,7.13
2019-02-20T05:45:45.149Z,7.16
2019-02-20T05:48:11.712Z,7.19
2019-02-20T05:50:38.646Z,7.20
2019-02-20T05:53:06.449Z,7.19
2019-02-20T05:55:34.082Z,7.15
2019-02-20T05:58:00.808Z,7.14
2019-02-20T06:00:27.303Z,7.11
2019-02-20T06:02:53.884Z,7.23
2019-02-20T06:05:20.441Z,7.14
2019-02-20T06:07:52.071Z,7.11
2019-02-20T06:10:18.705Z,7.17
2019-02-20T06:12:45.001Z,7.16
2019-02-20T06:15:11.726Z,7.10
2019-02-20T06:17:38.571Z,7.10
2019-02-20T06:20:08.070Z,7.11
2019-02-20T06:22:43.343Z,7.16
2019-02-20T06:25:10.161Z,7.05
2019-02-20T06:27:36.799Z,7.11
2019-02-20T06:30:07.310Z,7.15
2019-02-20T06:32:34.464Z,7.27
2019-02-20T06:35:01.213Z,7.23
2019-02-20T06:37:28.139Z,7.41
2019-02-20T06:39:54.881Z,7.43
2019-02-20T06:42:24.189Z,7.19
2019-02-20T06:44:50.656Z,6.99
2019-02-20T06:47:17.357Z,7.11
2019-02-20T06:49:43.802Z,7.16
2019-02-20T06:52:10.577Z,7.16
2019-02-20T06:58:01.428Z,7.14
2019-02-20T07:00:27.995Z,7.13
2019-02-20T07:02:54.806Z,7.07
2019-02-20T07:05:57.339Z,7.01
2019-02-20T07:12:31.482Z,6.96
2019-02-20T07:15:10.766Z,7.28
2019-02-20T07:17:46.985Z,7.22
2019-02-20T07:20:37.136Z,7.19
2019-02-20T07:23:13.323Z,7.26
2019-02-20T07:25:53.203Z,7.23
2019-02-20T07:31:44.459Z,7.62
2019-02-20T07:34:11.568Z,7.78
2019-02-20T07:36:38.075Z,7.77
2019-02-20T07:39:05.033Z,7.73
2019-02-20T07:41:32.597Z,7.89
2019-02-20T07:43:59.399Z,7.96
2019-02-20T07:46:26.207Z,7.77
2019-02-20T07:48:52.668Z,7.73
2019-02-20T07:51:19.362Z,7.85
2019-02-20T07:53:45.948Z,7.87
2019-02-20T07:56:12.811Z,7.81
2019-02-20T07:58:39.837Z,7.89
2019-02-20T08:01:06.777Z,7.89
2019-02-20T08:03:33.788Z,7.87
2019-02-20T08:06:00.693Z,7.87
2019-02-20T08:08:27.759Z,7.96
2019-02-20T08:10:54.802Z,7.90
2019-02-20T08:13:21.903Z,7.99
2019-02-20T08:15:48.677Z,8.14
2019-02-20T08:18:15.616Z,7.87
2019-02-20T08:20:42.679Z,8.04
2019-02-20T08:23:09.225Z,8.01
2019-02-20T08:25:35.946Z,8.14
2019-02-20T08:28:22.055Z,8.19
2019-02-20T08:30:53.067Z,8.20
2019-02-20T08:33:20.094Z,8.29
2019-02-20T08:35:47.011Z,8.33
2019-02-20T08:38:13.935Z,8.44
2019-02-20T08:40:41.125Z,8.42
2019-02-20T08:43:11.698Z,8.36
2019-02-20T08:45:39.061Z,8.48
2019-02-20T08:48:06.021Z,8.64
2019-02-20T08:50:32.980Z,8.63
2019-02-20T08:53:02.673Z,8.61
2019-02-20T08:55:32.415Z,8.82
2019-02-20T08:57:59.009Z,8.95
2019-02-20T09:00:26.048Z,9.02
2019-02-20T09:02:52.695Z,8.94
2019-02-20T09:05:19.623Z,9.02
2019-02-20T09:07:46.316Z,8.90
2019-02-20T09:10:13.351Z,9.10
2019-02-20T09:12:39.946Z,8.89
2019-02-20T09:15:12.400Z,8.90
2019-02-20T09:17:39.275Z,8.97
2019-02-20T09:20:09.349Z,8.78
2019-02-20T09:22:36.244Z,8.91
2019-02-20T09:25:06.463Z,9.17
2019-02-20T09:27:33.527Z,9.34
2019-02-20T09:30:00.338Z,9.42
2019-02-20T09:32:27.129Z,9.61
2019-02-20T09:34:53.763Z,9.64
2019-02-20T09:37:20.580Z,9.88
2019-02-20T09:39:47.242Z,9.84
2019-02-20T09:42:14.026Z,9.82
2019-02-20T09:44:43.173Z,10.05
2019-02-20T09:47:10.010Z,10.13
2019-02-20T09:49:37.009Z,10.04
2019-02-20T09:52:04.025Z,9.95
2019-02-20T09:54:30.863Z,10.13
2019-02-20T09:56:58.201Z,10.23
2019-02-20T09:59:25.146Z,10.39
2019-02-20T10:01:51.809Z,10.13
2019-02-20T10:04:18.623Z,10.27
2019-02-20T10:06:45.703Z,9.99
2019-02-20T10:09:13.083Z,10.01
2019-02-20T10:11:39.933Z,10.09
2019-02-20T10:14:07.072Z,10.41
2019-02-20T10:16:33.959Z,10.68
2019-02-20T10:19:01.023Z,10.68
2019-02-20T10:21:27.985Z,10.63
2019-02-20T10:23:54.918Z,10.77
2019-02-20T10:26:21.863Z,11.02
2019-02-20T10:28:48.794Z,10.87
2019-02-20T10:31:16.642Z,10.86
2019-02-20T10:33:43.411Z,10.84
2019-02-20T10:36:10.878Z,10.74
2019-02-20T10:38:37.692Z,11.03
2019-02-20T10:41:04.666Z,10.49
2019-02-20T10:43:31.708Z,10.58
2019-02-20T10:45:58.697Z,10.64
2019-02-20T10:48:25.727Z,10.68
2019-02-20T10:50:52.725Z,11.01
2019-02-20T10:53:19.760Z,11.29
2019-02-20T10:55:46.789Z,11.19
2019-02-20T10:58:13.970Z,10.93
2019-02-20T11:00:40.839Z,10.93
2019-02-20T11:03:07.568Z,10.75
2019-02-20T11:05:46.862Z,10.97
2019-02-20T11:08:14.059Z,10.69
2019-02-20T11:10:41.577Z,10.63
2019-02-20T11:13:08.977Z,10.58
2019-02-20T11:15:35.970Z,10.77
2019-02-20T11:18:02.755Z,10.46
2019-02-20T11:20:29.743Z,10.65
2019-02-20T11:22:56.581Z,10.55
2019-02-20T11:25:24.029Z,10.58
2019-02-20T11:27:51.420Z,10.69
2019-02-20T11:30:23.751Z,10.79
2019-02-20T11:32:50.562Z,10.97
2019-02-20T11:35:17.674Z,11.05
2019-02-20T11:37:44.991Z,10.88
2019-02-20T11:40:13.499Z,10.96
2019-02-20T11:42:44.552Z,10.92
2019-02-20T11:45:16.793Z,10.68
2019-02-20T11:47:43.744Z,10.90
2019-02-20T11:50:11.604Z,11.01
2019-02-20T11:52:39.169Z,10.71
2019-02-20T11:55:08.089Z,10.66
2019-02-20T11:57:35.271Z,10.69
2019-02-20T12:00:01.976Z,10.84
2019-02-20T12:02:37.209Z,11.00
2019-02-20T12:04:57.749Z,11.11
2019-02-20T12:07:24.819Z,11.10
2019-02-20T12:09:51.767Z,11.00
2019-02-20T12:12:18.844Z,11.20
2019-02-20T12:14:45.834Z,11.24
2019-02-20T12:17:12.778Z,11.41
2019-02-20T12:19:39.555Z,11.39
2019-02-20T12:22:06.591Z,11.28
2019-02-20T12:24:33.655Z,11.34
2019-02-20T12:27:00.908Z,11.14
2019-02-20T12:29:28.039Z,11.30
2019-02-20T12:31:54.938Z,10.98
2019-02-20T12:34:22.079Z,11.02
2019-02-20T12:36:49.205Z,11.17
2019-02-20T12:39:16.943Z,11.09
2019-02-20T12:41:43.920Z,10.97
2019-02-20T12:44:10.643Z,10.38
2019-02-20T12:46:37.915Z,10.31
2019-02-20T12:49:05.269Z,10.45
2019-02-20T12:51:32.205Z,10.51
2019-02-20T12:53:59.380Z,10.66
2019-02-20T12:56:26.431Z,10.65
2019-02-20T12:58:53.532Z,10.63
2019-02-20T13:01:20.533Z,10.34
2019-02-20T13:03:47.457Z,10.40
2019-02-20T13:06:14.324Z,10.08
2019-02-20T13:08:53.830Z,10.05
2019-02-20T13:11:19.002Z,10.04
2019-02-20T13:13:45.593Z,10.23
2019-02-20T13:16:12.533Z,10.22
2019-02-20T13:18:40.286Z,10.11
2019-02-20T13:21:08.065Z,9.95
2019-02-20T13:23:34.746Z,9.88
2019-02-20T13:26:01.844Z,10.03
2019-02-20T13:28:28.800Z,10.14
2019-02-20T13:30:57.044Z,10.00
2019-02-20T13:33:23.618Z,10.22
2019-02-20T13:35:50.514Z,10.24
2019-02-20T13:38:17.589Z,10.22
2019-02-20T13:40:44.759Z,10.16
2019-02-20T13:43:12.704Z,10.14
2019-02-20T13:45:39.675Z,10.10
2019-02-20T13:48:06.767Z,9.97
2019-02-20T13:50:33.871Z,10.15
2019-02-20T13:53:01.223Z,9.91
2019-02-20T13:55:34.291Z,9.78
2019-02-20T13:57:57.616Z,9.78
2019-02-20T14:00:24.934Z,9.82
2019-02-20T14:02:51.859Z,9.74
2019-02-20T14:05:19.422Z,9.50
2019-02-20T14:07:46.257Z,9.62
2019-02-20T14:10:13.324Z,9.56
2019-02-20T14:12:40.180Z,9.74
2019-02-20T14:15:09.882Z,9.69
2019-02-20T14:17:36.783Z,9.61
2019-02-20T14:20:06.887Z,9.64
2019-02-20T14:22:33.640Z,9.60
2019-02-20T14:25:02.726Z,9.59
2019-02-20T14:27:29.778Z,9.62
2019-02-20T14:29:56.854Z,9.66
2019-02-20T14:32:24.146Z,9.68
2019-02-20T14:34:51.690Z,9.69
2019-02-20T14:37:19.207Z,9.51
2019-02-20T14:39:47.787Z,9.68
2019-02-20T14:42:15.357Z,9.41
2019-02-20T14:44:42.651Z,9.46
2019-02-20T14:47:09.631Z,9.39
2019-02-20T14:49:36.971Z,9.37
2019-02-20T14:52:03.845Z,9.44
2019-02-20T14:54:30.743Z,9.35
2019-02-20T14:56:57.786Z,9.53
2019-02-20T14:59:24.355Z,9.42
2019-02-20T15:01:51.796Z,9.49
2019-02-20T15:04:18.384Z,9.55
2019-02-20T15:06:45.602Z,9.44
2019-02-20T15:09:13.290Z,9.40
2019-02-20T15:11:39.839Z,9.47
2019-02-20T15:14:07.145Z,9.42
2019-02-20T15:16:34.680Z,9.47
2019-02-20T15:19:01.684Z,9.48
2019-02-20T15:21:28.916Z,9.42
2019-02-20T15:23:55.347Z,9.38
2019-02-20T15:26:22.099Z,9.39
2019-02-20T15:28:48.974Z,9.52
2019-02-20T15:31:15.498Z,9.61
2019-02-20T15:33:41.899Z,9.47
2019-02-20T15:36:08.955Z,9.35
2019-02-20T15:38:36.233Z,9.24
2019-02-20T15:41:05.215Z,9.38
2019-02-20T15:43:32.445Z,9.40
2019-02-20T15:45:59.559Z,9.54
2019-02-20T15:48:26.829Z,9.63
2019-02-20T15:50:53.610Z,9.82
2019-02-20T15:53:20.690Z,9.90
2019-02-20T15:55:47.635Z,9.83
2019-02-20T15:58:15.089Z,9.84
2019-02-20T16:00:47.647Z,9.72
2019-02-20T16:03:14.491Z,9.68
2019-02-20T16:05:41.347Z,9.62
2019-02-20T16:08:08.599Z,9.53
2019-02-20T16:10:35.419Z,9.33
2019-02-20T16:13:02.150Z,9.53
2019-02-20T16:15:29.152Z,9.62
2019-02-20T16:17:56.295Z,9.55
2019-02-20T16:20:23.036Z,9.50
2019-02-20T16:22:49.557Z,9.49
2019-02-20T16:25:16.674Z,9.59
2019-02-20T16:27:47.020Z,9.53
2019-02-20T16:33:35.785Z,9.65
2019-02-20T16:36:02.527Z,9.74
2019-02-20T16:38:28.930Z,9.61
2019-02-20T16:40:56.547Z,9.42
2019-02-20T16:43:26.673Z,9.60
2019-02-20T16:45:53.687Z,9.56
2019-02-20T16:48:20.423Z,9.61
2019-02-20T16:50:47.057Z,9.62
2019-02-20T16:53:13.832Z,9.55
2019-02-20T16:55:40.470Z,9.49
2019-02-20T16:58:07.784Z,9.66
2019-02-20T17:00:34.962Z,9.81
2019-02-20T17:03:01.367Z,9.80
2019-02-20T17:05:27.904Z,9.76
2019-02-20T17:08:00.423Z,9.66
2019-02-20T17:10:26.959Z,9.59
2019-02-20T17:12:54.747Z,9.57
2019-02-20T17:15:24.426Z,9.61
2019-02-20T17:17:53.211Z,9.50
2019-02-20T17:20:20.346Z,9.44
2019-02-20T17:22:47.196Z,9.49
2019-02-20T17:31:38.234Z,9.52
2019-02-20T17:34:04.989Z,9.91
2019-02-20T17:36:31.676Z,9.76
2019-02-20T17:38:58.378Z,9.49
2019-02-20T17:41:25.482Z,9.34
2019-02-20T17:43:52.570Z,9.24
2019-02-20T17:46:19.319Z,9.07
2019-02-20T17:48:46.727Z,9.09
2019-02-20T17:51:13.946Z,9.03
2019-02-20T17:53:40.735Z,8.95
2019-02-20T17:56:07.786Z,9.03
2019-02-20T17:58:35.560Z,8.76
2019-02-20T18:01:03.977Z,8.83
2019-02-20T18:03:30.396Z,8.76
2019-02-20T18:05:57.467Z,8.81
2019-02-20T18:08:24.052Z,8.82
2019-02-20T18:10:51.221Z,8.83
2019-02-20T18:13:19.826Z,8.86
2019-02-20T18:15:46.652Z,8.74
2019-02-20T18:18:13.424Z,8.65
2019-02-20T18:20:40.626Z,8.58
2019-02-20T18:23:07.855Z,8.60
2019-02-20T18:25:34.471Z,8.41
2019-02-20T18:31:24.960Z,8.42
2019-02-20T18:33:51.350Z,8.48
2019-02-20T18:36:17.868Z,8.53
2019-02-20T18:38:44.337Z,8.55
2019-02-20T18:41:10.861Z,8.64
2019-02-20T18:43:37.550Z,8.49
2019-02-20T18:46:04.134Z,8.44
2019-02-20T18:48:30.780Z,8.55
2019-02-20T18:50:57.202Z,8.64
2019-02-20T18:53:23.663Z,8.70
2019-02-20T18:55:50.814Z,8.67
2019-02-20T18:58:19.078Z,8.57
2019-02-20T19:00:46.030Z,8.39
2019-02-20T19:03:12.960Z,8.37
2019-02-20T19:05:39.631Z,8.33
2019-02-20T19:08:30.155Z,8.32
2019-02-20T19:11:00.433Z,8.24
2019-02-20T19:13:46.105Z,8.24
2019-02-20T19:16:31.745Z,8.21
2019-02-20T19:19:02.965Z,8.35
2019-02-20T19:21:48.527Z,8.18
2019-02-20T19:24:34.150Z,8.24
2019-02-20T19:27:14.184Z,8.09
2019-02-20T19:33:10.280Z,8.17
2019-02-20T19:36:02.017Z,8.07
2019-02-20T19:38:50.316Z,8.06
2019-02-20T19:41:55.407Z,8.03
2019-02-20T19:44:31.913Z,8.02
2019-02-20T19:47:14.139Z,8.12
2019-02-20T19:50:06.481Z,8.16
2019-02-20T19:52:55.104Z,8.13
2019-02-20T19:55:28.311Z,8.14
2019-02-20T19:57:58.537Z,8.21
2019-02-20T20:00:40.606Z,8.09
2019-02-20T20:03:10.947Z,8.16
2019-02-20T20:05:49.578Z,8.11
2019-02-20T20:08:31.435Z,7.97
2019-02-20T20:11:25.945Z,7.94
2019-02-20T20:14:18.995Z,7.97
2019-02-20T20:17:14.307Z,8.08
2019-02-20T20:19:50.700Z,8.03
2019-02-20T20:22:27.237Z,7.91
2019-02-20T20:25:15.912Z,8.05
2019-02-20T20:28:16.579Z,8.03
2019-02-20T20:31:11.134Z,7.89
2019-02-20T20:34:08.906Z,7.83
2019-02-20T20:36:41.858Z,7.78
2019-02-20T20:39:32.374Z,7.94
2019-02-20T20:42:30.180Z,7.78
2019-02-20T20:45:18.396Z,7.91
2019-02-20T20:48:12.831Z,7.74
2019-02-20T20:50:54.652Z,7.79
2019-02-20T20:53:30.549Z,7.81
2019-02-20T20:56:06.399Z,7.90
2019-02-20T20:58:39.611Z,7.76
2019-02-20T21:01:36.550Z,7.78
2019-02-20T21:04:19.030Z,7.83
2019-02-20T21:07:05.751Z,7.83
2019-02-20T21:09:39.299Z,7.92
2019-02-20T21:12:37.875Z,7.89
2019-02-20T21:15:41.992Z,7.87
2019-02-20T21:18:30.177Z,7.86
2019-02-20T21:21:30.427Z,7.79
2019-02-20T21:24:03.656Z,7.91
2019-02-20T21:26:39.617Z,7.82
2019-02-20T21:29:31.152Z,7.88
2019-02-20T21:32:16.467Z,7.88
2019-02-20T21:35:05.209Z,7.83
2019-02-20T21:41:09.783Z,7.78
2019-02-20T21:43:43.483Z,7.82
2019-02-20T21:46:40.001Z,7.83
2019-02-20T21:49:16.470Z,7.79
2019-02-20T21:52:06.208Z,7.91
2019-02-20T21:55:00.856Z,7.86
2019-02-20T21:57:53.914Z,7.81
2019-02-20T22:00:28.031Z,7.82
2019-02-20T22:03:19.687Z,7.77
2019-02-20T22:05:52.603Z,7.84
2019-02-20T22:08:45.899Z,7.86
2019-02-20T22:11:24.197Z,7.98
2019-02-20T22:14:11.833Z,7.81
2019-02-20T22:16:57.512Z,7.90
2019-02-20T22:19:45.386Z,7.81
2019-02-20T22:22:21.258Z,7.71
2019-02-20T22:25:03.784Z,7.90
2019-02-20T22:27:48.918Z,7.82
2019-02-20T22:30:25.762Z,7.97
2019-02-20T22:33:11.203Z,7.87
2019-02-20T22:35:47.002Z,7.81
2019-02-20T22:38:32.399Z,7.83
2019-02-20T22:41:07.238Z,7.84
2019-02-20T22:43:40.739Z,7.90
2019-02-20T22:46:19.858Z,7.99
2019-02-20T22:48:50.176Z,8.01
2019-02-20T22:51:20.389Z,8.06
2019-02-20T22:54:03.024Z,8.03
2019-02-20T22:56:39.054Z,8.04
2019-02-20T22:59:27.748Z,8.09
2019-02-20T23:02:13.312Z,8.06
2019-02-20T23:04:46.636Z,8.03
2019-02-20T23:07:16.870Z,8.04
2019-02-20T23:09:59.277Z,8.02
2019-02-20T23:12:50.535Z,8.05
2019-02-20T23:15:17.011Z,8.17
2019-02-20T23:17:43.335Z,8.09
2019-02-20T23:20:09.862Z,8.03
2019-02-20T23:22:36.486Z,8.16
2019-02-20T23:25:04.560Z,8.23
2019-02-20T23:27:30.908Z,8.20
2019-02-20T23:29:57.169Z,8.29
2019-02-20T23:32:23.797Z,8.18
2019-02-20T23:34:50.325Z,8.20
2019-02-20T23:37:16.850Z,8.36
2019-02-20T23:39:43.346Z,8.30
2019-02-20T23:42:09.907Z,8.13
2019-02-20T23:44:36.481Z,8.19
2019-02-20T23:47:03.288Z,8.23
2019-02-20T23:49:29.839Z,8.22
2019-02-20T23:51:56.350Z,8.20
2019-02-20T23:54:23.605Z,8.20
2019-02-20T23:56:50.056Z,8.32
2019-02-20T23:59:16.382Z,8.36
